Zeran (malta) — 9HHJ5 — position and weather

sailwx.info

Track history (hours):
 
Tides and Currents Weather Stations Pressure Air Temp Water Temp Dewpoint Dewpoint Depression Visibility Wind Speed Wind Dir Waves Ship Positions

Zeran (malta)

Last reported at 2017-Dec-11 02:31 UTC. Time now 2017-Dec-11 19:20 UTC.
Position N 43°19' E 009°25'.

Length 148 m; beam 24 m.

Type: Cargo ship. MMSI: 249846000.

Date/timePositionNaut miles runAvg speedWind from/ knotsBaromVisibWave heightAir tempDewpointWater temp
2017-Dec-11 02:31N 43°19' E 009°25'3 8.7
2017-Dec-11 02:09N 43°22' E 009°23'1 8.2
2017-Dec-11 02:00N 43°23' E 009°23'5 8.0
2017-Dec-11 01:25N 43°28' E 009°22'4 8.1
2017-Dec-11 00:57N 43°31' E 009°20'4 8.4
2017-Dec-11 00:30N 43°35' E 009°20'4 8.7
2017-Dec-11 00:00N 43°39' E 009°17'5 9.1
2017-Dec-10 23:29N 43°43' E 009°15'5 9.9
2017-Dec-10 22:58N 43°48' E 009°13'511.0
2017-Dec-10 22:30N 43°53' E 009°11'611.7
2017-Dec-10 22:00N 43°59' E 009°08'612.4
2017-Dec-10 21:30N 44°05' E 009°06'612.8
2017-Dec-10 21:00N 44°11' E 009°03'612.9
2017-Dec-10 20:30N 44°17' E 008°59'612.3
2017-Dec-10 20:00N 44°23' E 008°57'4 6.5
2017-Dec-10 19:27N 44°24' E 008°52'0 0.2
2017-Dec-10 18:57N 44°24' E 008°53'0 0.0
2017-Dec-10 18:30N 44°24' E 008°53'0 0.0
2017-Dec-10 18:00N 44°24' E 008°53'0 0.0
2017-Dec-10 17:30N 44°24' E 008°53'0 0.0
2017-Dec-10 17:00N 44°24' E 008°53'0 0.0
2017-Dec-10 16:30N 44°24' E 008°53'0 0.0
2017-Dec-10 16:00N 44°24' E 008°53'0 0.0
2017-Dec-10 15:30N 44°24' E 008°53'0 0.0
2017-Dec-10 15:00N 44°24' E 008°53'0 0.0
2017-Dec-10 14:30N 44°24' E 008°53'0 0.0
2017-Dec-10 14:00N 44°24' E 008°53'0 0.0
2017-Dec-10 13:30N 44°24' E 008°53'0 0.0
2017-Dec-10 13:00N 44°24' E 008°53'0 0.0
2017-Dec-10 12:30N 44°24' E 008°53'0 0.0
2017-Dec-10 12:00N 44°24' E 008°53'0 0.0
2017-Dec-10 11:27N 44°24' E 008°53'0 0.0
2017-Dec-10 11:00N 44°24' E 008°53'0 0.0
2017-Dec-10 10:27N 44°24' E 008°53'0 0.0
2017-Dec-10 10:00N 44°24' E 008°53'0 0.0
2017-Dec-10 09:30N 44°24' E 008°53'0 0.0
2017-Dec-10 08:57N 44°24' E 008°53'0 0.0
2017-Dec-10 08:30N 44°24' E 008°53'0 0.0
2017-Dec-10 07:57N 44°24' E 008°53'0 0.0
2017-Dec-10 07:27N 44°24' E 008°53'0 0.0
2017-Dec-10 07:00N 44°24' E 008°53'0 0.0
2017-Dec-10 06:27N 44°24' E 008°53'0 0.0
2017-Dec-10 06:00N 44°24' E 008°53'0 0.0
2017-Dec-10 05:27N 44°24' E 008°53'0 0.0
2017-Dec-10 05:00N 44°24' E 008°53'0 0.0
2017-Dec-10 04:30N 44°24' E 008°53'0 0.0
2017-Dec-10 04:00N 44°24' E 008°53'0 0.0
2017-Dec-10 03:30N 44°24' E 008°53'0 0.0
2017-Dec-10 02:57N 44°24' E 008°53'0 0.0
2017-Dec-10 02:30N 44°24' E 008°53'0 0.0
2017-Dec-10 02:00N 44°24' E 008°53'0 0.0
2017-Dec-10 01:30N 44°24' E 008°53'0 0.0
2017-Dec-10 01:00N 44°24' E 008°53'0 0.0
2017-Dec-10 00:30N 44°24' E 008°53'0 0.0
2017-Dec-10 00:00N 44°24' E 008°53'0 0.0
2017-Dec-09 23:30N 44°24' E 008°53'0 0.0
2017-Dec-09 23:00N 44°24' E 008°53'0 0.0
2017-Dec-09 22:30N 44°24' E 008°53'0 0.0
2017-Dec-09 22:00N 44°24' E 008°53'0 0.0
2017-Dec-09 21:30N 44°24' E 008°53'0 0.0
2017-Dec-09 20:57N 44°24' E 008°53'0 0.0
2017-Dec-09 20:24N 44°24' E 008°53'0 0.4
2017-Dec-09 20:00N 44°24' E 008°52'3 6.8
2017-Dec-09 19:30N 44°23' E 008°57'4 8.5
2017-Dec-09 19:00N 44°19' E 009°00'613.1
2017-Dec-09 18:30N 44°14' E 009°05'612.9
2017-Dec-09 18:00N 44°08' E 009°10'612.7
2017-Dec-09 17:30N 44°03' E 009°14'712.4
2017-Dec-09 16:56N 43°57' E 009°19'512.1
2017-Dec-09 16:30N 43°52' E 009°23'612.2
2017-Dec-09 16:00N 43°47' E 009°27'711.8
2017-Dec-09 15:26N 43°41' E 009°31'511.5
2017-Dec-09 15:00N 43°36' E 009°33'611.0
2017-Dec-09 14:30N 43°31' E 009°37'510.5
2017-Dec-09 14:00N 43°27' E 009°41'510.3
2017-Dec-09 13:30N 43°22' E 009°44'510.2
2017-Dec-09 13:00N 43°18' E 009°48'510.4
2017-Dec-09 12:30N 43°13' E 009°51'510.4
2017-Dec-09 12:00N 43°09' E 009°55'  
2017-Dec-03 13:31N 40°34' E 014°03'25312.0
2017-Dec-02 16:28N 43°21' E 009°48'611.9
2017-Dec-02 15:56N 43°27' E 009°43'512.0
2017-Dec-02 15:30N 43°31' E 009°39'612.2
2017-Dec-02 15:00N 43°36' E 009°34'612.9
2017-Dec-02 14:30N 43°42' E 009°30'612.6
2017-Dec-02 14:00N 43°47' E 009°25'712.6
2017-Dec-02 13:26N 43°53' E 009°20'613.2
2017-Dec-02 13:00N 43°58' E 009°16'713.5
2017-Dec-02 12:30N 44°04' E 009°11'713.4
2017-Dec-02 12:00N 44°09' E 009°06'713.3
2017-Dec-02 11:30N 44°15' E 009°01'713.0
2017-Dec-02 11:00N 44°20' E 008°56'5 9.6
2017-Dec-02 10:30N 44°24' E 008°52'0 0.5
2017-Dec-02 09:58N 44°24' E 008°53'0 0.0
2017-Dec-02 09:22N 44°24' E 008°53'0 0.0
2017-Dec-02 08:58N 44°24' E 008°53'0 0.0
2017-Dec-02 08:25N 44°24' E 008°53'0 0.0
2017-Dec-02 07:58N 44°24' E 008°53'0 0.0
2017-Dec-02 07:25N 44°24' E 008°53'0 0.0
2017-Dec-02 06:58N 44°24' E 008°53'0 0.0
2017-Dec-02 06:28N 44°24' E 008°53'0 0.0
2017-Dec-02 05:55N 44°24' E 008°53'0 0.0
2017-Dec-02 05:25N 44°24' E 008°53'0 0.0
2017-Dec-02 04:55N 44°24' E 008°53'0 0.0
2017-Dec-02 04:28N 44°24' E 008°53'0 0.0
2017-Dec-02 03:55N 44°24' E 008°53'0 0.0
2017-Dec-02 03:25N 44°24' E 008°53'0 0.0
2017-Dec-02 02:58N 44°24' E 008°53'0 0.0
2017-Dec-02 02:28N 44°24' E 008°53'0 0.0
2017-Dec-02 01:58N 44°24' E 008°53'0 0.0
2017-Dec-02 01:28N 44°24' E 008°53'0 0.0
2017-Dec-02 00:58N 44°24' E 008°53'0 0.0
2017-Dec-02 00:28N 44°24' E 008°53'0 0.0
2017-Dec-01 23:58N 44°24' E 008°53'0 0.0
2017-Dec-01 23:28N 44°24' E 008°53'0 0.0
2017-Dec-01 22:58N 44°24' E 008°53'0 0.0
2017-Dec-01 22:28N 44°24' E 008°53'0 0.0
2017-Dec-01 21:58N 44°24' E 008°53'0 0.0
2017-Dec-01 21:28N 44°24' E 008°53'0 0.0
2017-Dec-01 20:58N 44°24' E 008°53'0 0.0
2017-Dec-01 20:28N 44°24' E 008°53'0 0.0
2017-Dec-01 19:58N 44°24' E 008°53'0 0.0
2017-Dec-01 19:28N 44°24' E 008°53'0 0.0
2017-Dec-01 18:55N 44°24' E 008°53'0 0.0
2017-Dec-01 18:28N 44°24' E 008°53'0 0.0
2017-Dec-01 17:55N 44°24' E 008°53'0 0.0
2017-Dec-01 17:22N 44°24' E 008°53'0 0.0
2017-Dec-01 16:58N 44°24' E 008°53'0 0.0
2017-Dec-01 16:25N 44°24' E 008°53'0 0.0
2017-Dec-01 15:58N 44°24' E 008°53'0 0.0
2017-Dec-01 15:25N 44°24' E 008°53'0 0.0
2017-Dec-01 14:55N 44°24' E 008°53'0 0.0
2017-Dec-01 14:28N 44°24' E 008°53'0 0.0
2017-Dec-01 13:55N 44°24' E 008°53'0 0.0
2017-Dec-01 13:29N 44°24' E 008°53'0 0.0
2017-Dec-01 13:01N 44°24' E 008°53'0 0.0
2017-Dec-01 12:31N 44°24' E 008°53'0 0.0
2017-Dec-01 12:01N 44°24' E 008°53'1 1.8
2017-Dec-01 11:31N 44°24' E 008°54'4 8.8
2017-Dec-01 11:01N 44°21' E 008°58'713.4
2017-Dec-01 10:30N 44°15' E 009°02'814.1
2017-Dec-01 09:58N 44°08' E 009°05'714.2
2017-Dec-01 09:31N 44°01' E 009°08'714.0
2017-Dec-01 09:01N 43°55' E 009°11'714.1
2017-Dec-01 08:31N 43°48' E 009°15'714.3
2017-Dec-01 08:01N 43°42' E 009°19'713.9
2017-Dec-01 07:31N 43°35' E 009°22'713.6
2017-Dec-01 07:01N 43°29' E 009°26'713.0
2017-Dec-01 06:31N 43°23' E 009°29'  
Track history (hours):
 
Tides and Currents Weather Stations Pressure Air Temp Water Temp Dewpoint Dewpoint Depression Visibility Wind Speed Wind Dir Waves Ship Positions

Zeran (malta)

Last reported at 2017-Dec-11 02:31 UTC. Time now 2017-Dec-11 19:20 UTC.
Position N 43°19' E 009°25'.

Length 148 m; beam 24 m.

Type: Cargo ship. MMSI: 249846000.

Date/timePositionNaut miles runAvg speedWind from/ knotsBaromVisibWave heightAir tempDewpointWater temp
2017-Dec-11 02:31N 43°19' E 009°25'3 8.7
2017-Dec-11 02:09N 43°22' E 009°23'1 8.2
2017-Dec-11 02:00N 43°23' E 009°23'5 8.0
2017-Dec-11 01:25N 43°28' E 009°22'4 8.1
2017-Dec-11 00:57N 43°31' E 009°20'4 8.4
2017-Dec-11 00:30N 43°35' E 009°20'4 8.7
2017-Dec-11 00:00N 43°39' E 009°17'5 9.1
2017-Dec-10 23:29N 43°43' E 009°15'5 9.9
2017-Dec-10 22:58N 43°48' E 009°13'511.0
2017-Dec-10 22:30N 43°53' E 009°11'611.7
2017-Dec-10 22:00N 43°59' E 009°08'612.4
2017-Dec-10 21:30N 44°05' E 009°06'612.8
2017-Dec-10 21:00N 44°11' E 009°03'612.9
2017-Dec-10 20:30N 44°17' E 008°59'612.3
2017-Dec-10 20:00N 44°23' E 008°57'4 6.5
2017-Dec-10 19:27N 44°24' E 008°52'0 0.2
2017-Dec-10 18:57N 44°24' E 008°53'0 0.0
2017-Dec-10 18:30N 44°24' E 008°53'0 0.0
2017-Dec-10 18:00N 44°24' E 008°53'0 0.0
2017-Dec-10 17:30N 44°24' E 008°53'0 0.0
2017-Dec-10 17:00N 44°24' E 008°53'0 0.0
2017-Dec-10 16:30N 44°24' E 008°53'0 0.0
2017-Dec-10 16:00N 44°24' E 008°53'0 0.0
2017-Dec-10 15:30N 44°24' E 008°53'0 0.0
2017-Dec-10 15:00N 44°24' E 008°53'0 0.0
2017-Dec-10 14:30N 44°24' E 008°53'0 0.0
2017-Dec-10 14:00N 44°24' E 008°53'0 0.0
2017-Dec-10 13:30N 44°24' E 008°53'0 0.0
2017-Dec-10 13:00N 44°24' E 008°53'0 0.0
2017-Dec-10 12:30N 44°24' E 008°53'0 0.0
2017-Dec-10 12:00N 44°24' E 008°53'0 0.0
2017-Dec-10 11:27N 44°24' E 008°53'0 0.0
2017-Dec-10 11:00N 44°24' E 008°53'0 0.0
2017-Dec-10 10:27N 44°24' E 008°53'0 0.0
2017-Dec-10 10:00N 44°24' E 008°53'0 0.0
2017-Dec-10 09:30N 44°24' E 008°53'0 0.0
2017-Dec-10 08:57N 44°24' E 008°53'0 0.0
2017-Dec-10 08:30N 44°24' E 008°53'0 0.0
2017-Dec-10 07:57N 44°24' E 008°53'0 0.0
2017-Dec-10 07:27N 44°24' E 008°53'0 0.0
2017-Dec-10 07:00N 44°24' E 008°53'0 0.0
2017-Dec-10 06:27N 44°24' E 008°53'0 0.0
2017-Dec-10 06:00N 44°24' E 008°53'0 0.0
2017-Dec-10 05:27N 44°24' E 008°53'0 0.0
2017-Dec-10 05:00N 44°24' E 008°53'0 0.0
2017-Dec-10 04:30N 44°24' E 008°53'0 0.0
2017-Dec-10 04:00N 44°24' E 008°53'0 0.0
2017-Dec-10 03:30N 44°24' E 008°53'0 0.0
2017-Dec-10 02:57N 44°24' E 008°53'0 0.0
2017-Dec-10 02:30N 44°24' E 008°53'0 0.0
2017-Dec-10 02:00N 44°24' E 008°53'0 0.0
2017-Dec-10 01:30N 44°24' E 008°53'0 0.0
2017-Dec-10 01:00N 44°24' E 008°53'0 0.0
2017-Dec-10 00:30N 44°24' E 008°53'0 0.0
2017-Dec-10 00:00N 44°24' E 008°53'0 0.0
2017-Dec-09 23:30N 44°24' E 008°53'0 0.0
2017-Dec-09 23:00N 44°24' E 008°53'0 0.0
2017-Dec-09 22:30N 44°24' E 008°53'0 0.0
2017-Dec-09 22:00N 44°24' E 008°53'0 0.0
2017-Dec-09 21:30N 44°24' E 008°53'0 0.0
2017-Dec-09 20:57N 44°24' E 008°53'0 0.0
2017-Dec-09 20:24N 44°24' E 008°53'0 0.4
2017-Dec-09 20:00N 44°24' E 008°52'3 6.8
2017-Dec-09 19:30N 44°23' E 008°57'4 8.5
2017-Dec-09 19:00N 44°19' E 009°00'613.1
2017-Dec-09 18:30N 44°14' E 009°05'612.9
2017-Dec-09 18:00N 44°08' E 009°10'612.7
2017-Dec-09 17:30N 44°03' E 009°14'712.4
2017-Dec-09 16:56N 43°57' E 009°19'512.1
2017-Dec-09 16:30N 43°52' E 009°23'612.2
2017-Dec-09 16:00N 43°47' E 009°27'711.8
2017-Dec-09 15:26N 43°41' E 009°31'511.5
2017-Dec-09 15:00N 43°36' E 009°33'611.0
2017-Dec-09 14:30N 43°31' E 009°37'510.5
2017-Dec-09 14:00N 43°27' E 009°41'510.3
2017-Dec-09 13:30N 43°22' E 009°44'510.2
2017-Dec-09 13:00N 43°18' E 009°48'510.4
2017-Dec-09 12:30N 43°13' E 009°51'510.4
2017-Dec-09 12:00N 43°09' E 009°55'  
2017-Dec-03 13:31N 40°34' E 014°03'25312.0
2017-Dec-02 16:28N 43°21' E 009°48'611.9
2017-Dec-02 15:56N 43°27' E 009°43'512.0
2017-Dec-02 15:30N 43°31' E 009°39'612.2
2017-Dec-02 15:00N 43°36' E 009°34'612.9
2017-Dec-02 14:30N 43°42' E 009°30'612.6
2017-Dec-02 14:00N 43°47' E 009°25'712.6
2017-Dec-02 13:26N 43°53' E 009°20'613.2
2017-Dec-02 13:00N 43°58' E 009°16'713.5
2017-Dec-02 12:30N 44°04' E 009°11'713.4
2017-Dec-02 12:00N 44°09' E 009°06'713.3
2017-Dec-02 11:30N 44°15' E 009°01'713.0
2017-Dec-02 11:00N 44°20' E 008°56'5 9.6
2017-Dec-02 10:30N 44°24' E 008°52'0 0.5
2017-Dec-02 09:58N 44°24' E 008°53'0 0.0
2017-Dec-02 09:22N 44°24' E 008°53'0 0.0
2017-Dec-02 08:58N 44°24' E 008°53'0 0.0
2017-Dec-02 08:25N 44°24' E 008°53'0 0.0
2017-Dec-02 07:58N 44°24' E 008°53'0 0.0
2017-Dec-02 07:25N 44°24' E 008°53'0 0.0
2017-Dec-02 06:58N 44°24' E 008°53'0 0.0
2017-Dec-02 06:28N 44°24' E 008°53'0 0.0
2017-Dec-02 05:55N 44°24' E 008°53'0 0.0
2017-Dec-02 05:25N 44°24' E 008°53'0 0.0
2017-Dec-02 04:55N 44°24' E 008°53'0 0.0
2017-Dec-02 04:28N 44°24' E 008°53'0 0.0
2017-Dec-02 03:55N 44°24' E 008°53'0 0.0
2017-Dec-02 03:25N 44°24' E 008°53'0 0.0
2017-Dec-02 02:58N 44°24' E 008°53'0 0.0
2017-Dec-02 02:28N 44°24' E 008°53'0 0.0
2017-Dec-02 01:58N 44°24' E 008°53'0 0.0
2017-Dec-02 01:28N 44°24' E 008°53'0 0.0
2017-Dec-02 00:58N 44°24' E 008°53'0 0.0
2017-Dec-02 00:28N 44°24' E 008°53'0 0.0
2017-Dec-01 23:58N 44°24' E 008°53'0 0.0
2017-Dec-01 23:28N 44°24' E 008°53'0 0.0
2017-Dec-01 22:58N 44°24' E 008°53'0 0.0
2017-Dec-01 22:28N 44°24' E 008°53'0 0.0
2017-Dec-01 21:58N 44°24' E 008°53'0 0.0
2017-Dec-01 21:28N 44°24' E 008°53'0 0.0
2017-Dec-01 20:58N 44°24' E 008°53'0 0.0
2017-Dec-01 20:28N 44°24' E 008°53'0 0.0
2017-Dec-01 19:58N 44°24' E 008°53'0 0.0
2017-Dec-01 19:28N 44°24' E 008°53'0 0.0
2017-Dec-01 18:55N 44°24' E 008°53'0 0.0
2017-Dec-01 18:28N 44°24' E 008°53'0 0.0
2017-Dec-01 17:55N 44°24' E 008°53'0 0.0
2017-Dec-01 17:22N 44°24' E 008°53'0 0.0
2017-Dec-01 16:58N 44°24' E 008°53'0 0.0
2017-Dec-01 16:25N 44°24' E 008°53'0 0.0
2017-Dec-01 15:58N 44°24' E 008°53'0 0.0
2017-Dec-01 15:25N 44°24' E 008°53'0 0.0
2017-Dec-01 14:55N 44°24' E 008°53'0 0.0
2017-Dec-01 14:28N 44°24' E 008°53'0 0.0
2017-Dec-01 13:55N 44°24' E 008°53'0 0.0
2017-Dec-01 13:29N 44°24' E 008°53'0 0.0
2017-Dec-01 13:01N 44°24' E 008°53'0 0.0
2017-Dec-01 12:31N 44°24' E 008°53'0 0.0
2017-Dec-01 12:01N 44°24' E 008°53'1 1.8
2017-Dec-01 11:31N 44°24' E 008°54'4 8.8
2017-Dec-01 11:01N 44°21' E 008°58'713.4
2017-Dec-01 10:30N 44°15' E 009°02'814.1
2017-Dec-01 09:58N 44°08' E 009°05'714.2
2017-Dec-01 09:31N 44°01' E 009°08'714.0
2017-Dec-01 09:01N 43°55' E 009°11'714.1
2017-Dec-01 08:31N 43°48' E 009°15'714.3
2017-Dec-01 08:01N 43°42' E 009°19'713.9
2017-Dec-01 07:31N 43°35' E 009°22'713.6
2017-Dec-01 07:01N 43°29' E 009°26'713.0
2017-Dec-01 06:31N 43°23' E 009°29'  

Dump ship's entire track history